Time;durP1;ratioP1;P1;durP2;ratioP2;P2;SDS_P1;SDS_P2;PMS_P1;PMS_P2;Temp;Humidity;BMP_temperature;BMP_pressure;BME280_temperature;BME280_humidity;BME280_pressure;Samples;Min_cycle;Max_cycle;Signal;HPM_P1;HPM_P2
2021/09/27 00:01:48;;;;;;;8.13;6.45;;;;;;;13.59;77.48;100352.32;254112;1107;116168;-68
2021/09/27 00:06:51;;;;;;;10.18;6.55;;;;;;;13.58;77.62;100357.91;256251;1107;115222;-68
2021/09/27 00:11:54;;;;;;;15.80;8.87;;;;;;;13.59;77.53;100357.68;255558;1107;115262;-68
2021/09/27 00:16:57;;;;;;;11.68;7.88;;;;;;;13.58;77.93;100352.56;253836;1107;115743;-67
2021/09/27 00:22:00;;;;;;;13.60;7.03;;;;;;;13.57;77.80;100348.25;253155;1102;115591;-70
2021/09/27 00:27:03;;;;;;;6.75;6.15;;;;;;;13.53;77.56;100347.09;255470;1106;115496;-70
2021/09/27 00:32:06;;;;;;;9.45;6.53;;;;;;;13.56;77.82;100350.12;256154;1106;115361;-67
2021/09/27 00:37:08;;;;;;;7.85;6.43;;;;;;;13.58;77.45;100342.66;255035;1101;116396;-69
2021/09/27 00:42:11;;;;;;;7.50;5.63;;;;;;;13.56;77.74;100347.44;253121;1107;115975;-71
2021/09/27 00:47:13;;;;;;;8.00;4.90;;;;;;;13.47;77.38;100333.61;253216;1102;116818;-71
2021/09/27 00:52:18;;;;;;;7.90;4.88;;;;;;;13.40;77.83;100338.31;253391;1107;116226;-69
2021/09/27 00:57:28;;;;;;;8.83;5.48;;;;;;;13.37;77.70;100338.78;253188;1107;116492;-69
2021/09/27 01:02:33;;;;;;;7.93;5.40;;;;;;;13.38;77.57;100332.38;254131;1103;116147;-71
2021/09/27 01:07:49;;;;;;;9.90;5.63;;;;;;;13.31;77.85;100333.56;253812;1103;116442;-71
2021/09/27 01:13:11;;;;;;;;;;;;;;;13.26;77.51;100342.30;253308;1107;116186;-71
2021/09/27 01:18:16;;;;;;;7.98;5.75;;;;;;;13.23;78.07;100341.97;254177;1107;103401;-70
2021/09/27 01:23:44;;;;;;;8.48;4.58;;;;;;;13.24;77.69;100336.38;253130;1106;116085;-69
2021/09/27 01:29:11;;;;;;;8.98;5.65;;;;;;;13.33;78.16;100331.47;254666;1106;115735;-69
2021/09/27 01:34:25;;;;;;;10.60;5.20;;;;;;;13.34;78.21;100341.94;253456;1101;115996;-69
2021/09/27 01:39:43;;;;;;;10.18;5.63;;;;;;;13.33;77.64;100342.98;252964;1102;116405;-69
2021/09/27 01:45:22;;;;;;;16.90;7.23;;;;;;;13.32;77.67;100346.72;254059;1107;117784;-70
2021/09/27 01:50:40;;;;;;;10.90;5.95;;;;;;;13.31;78.15;100350.44;253704;1106;116127;-69
2021/09/27 01:56:11;;;;;;;6.43;5.13;;;;;;;13.33;77.99;100352.88;255166;1103;116806;-69
2021/09/27 02:01:38;;;;;;;5.65;4.90;;;;;;;13.34;78.27;100354.52;254843;1107;115618;-69
2021/09/27 02:06:49;;;;;;;12.48;5.60;;;;;;;13.39;77.82;100347.40;254728;1107;116726;-69
2021/09/27 02:11:59;;;;;;;8.68;5.18;;;;;;;13.40;77.73;100343.67;253655;1107;116112;-69
2021/09/27 02:17:20;;;;;;;12.03;5.08;;;;;;;13.43;78.23;100345.06;254264;1107;115820;-69
2021/09/27 02:22:47;;;;;;;8.78;5.55;;;;;;;13.39;77.85;100344.72;253323;1107;115008;-69
2021/09/27 02:27:52;;;;;;;13.20;4.60;;;;;;;13.37;77.61;100337.97;253310;1103;115638;-69
2021/09/27 02:33:03;;;;;;;7.10;5.63;;;;;;;13.34;77.36;100338.45;253902;1107;116003;-68
2021/09/27 02:38:09;;;;;;;10.83;5.13;;;;;;;13.28;77.10;100331.36;254146;1107;116842;-69
2021/09/27 02:43:14;;;;;;;8.38;5.78;;;;;;;13.22;76.99;100337.66;253534;1106;115395;-71
2021/09/27 02:48:41;;;;;;;6.90;4.40;;;;;;;13.10;77.11;100335.81;253436;1101;115826;-69
2021/09/27 02:53:43;;;;;;;9.43;4.80;;;;;;;13.00;76.63;100332.92;253899;1107;115507;-71
2021/09/27 02:59:05;;;;;;;10.03;4.75;;;;;;;12.91;77.03;100320.94;253381;1106;115443;-69
2021/09/27 03:04:17;;;;;;;4.88;4.48;;;;;;;12.78;76.62;100327.38;254039;1107;115960;-69
2021/09/27 03:09:25;;;;;;;10.40;4.80;;;;;;;12.66;76.63;100323.89;253258;1107;115188;-70
2021/09/27 03:14:53;;;;;;;4.95;4.53;;;;;;;12.55;76.65;100324.70;253636;1107;116116;-69
2021/09/27 03:20:18;;;;;;;3.65;3.35;;;;;;;12.46;77.25;100320.77;254150;1107;116492;-69
2021/09/27 03:25:58;;;;;;;7.80;4.27;;;;;;;12.38;76.61;100324.59;253576;1107;115226;-69
2021/09/27 03:31:26;;;;;;;6.40;4.23;;;;;;;12.27;76.57;100322.72;255327;1107;115484;-70
2021/09/27 03:36:34;;;;;;;8.48;5.20;;;;;;;12.19;76.87;100320.41;254042;1107;115335;-69
2021/09/27 03:41:40;;;;;;;6.23;4.33;;;;;;;12.12;76.90;100325.85;255235;1102;115646;-69
2021/09/27 03:47:02;;;;;;;11.30;5.13;;;;;;;12.09;76.95;100322.83;255003;1107;115278;-70
2021/09/27 03:52:17;;;;;;;10.73;4.95;;;;;;;12.03;76.91;100321.06;254057;1101;115848;-70
2021/09/27 03:57:32;;;;;;;10.83;4.88;;;;;;;11.98;76.62;100321.75;253856;1103;115722;-69
2021/09/27 04:02:44;;;;;;;7.73;5.27;;;;;;;11.92;76.72;100306.66;253371;1107;115798;-68
2021/09/27 04:07:59;;;;;;;6.40;4.57;;;;;;;11.84;76.67;100308.84;256120;1106;116513;-69
2021/09/27 04:13:05;;;;;;;13.38;5.50;;;;;;;11.74;76.46;100307.50;255279;1107;116013;-69
2021/09/27 04:18:20;;;;;;;6.00;4.43;;;;;;;11.67;76.57;100305.96;255633;1103;115523;-69
2021/09/27 04:23:52;;;;;;;8.75;5.05;;;;;;;11.62;76.60;100303.97;254023;1107;115402;-67
2021/09/27 04:29:20;;;;;;;11.43;6.53;;;;;;;11.57;76.58;100295.85;254399;1107;115406;-68
2021/09/27 04:34:53;;;;;;;11.35;6.18;;;;;;;11.48;76.86;100291.87;254596;1107;115678;-68
2021/09/27 04:39:58;;;;;;;8.42;5.42;;;;;;;11.43;76.89;100292.54;254812;1100;140023;-68
2021/09/27 04:45:21;;;;;;;6.70;5.00;;;;;;;11.42;76.69;100300.77;253983;1107;115867;-68
2021/09/27 04:50:51;;;;;;;7.87;5.80;;;;;;;11.37;76.92;100301.45;253802;1107;115196;-68
2021/09/27 04:56:16;;;;;;;6.95;5.13;;;;;;;11.38;77.30;100310.27;254008;1107;137067;-68
2021/09/27 05:01:42;;;;;;;9.40;5.30;;;;;;;11.46;77.54;100315.30;253647;1107;116685;-67
2021/09/27 05:06:57;;;;;;;10.13;5.18;;;;;;;11.56;77.33;100310.24;254592;1107;115959;-67
2021/09/27 05:12:37;;;;;;;7.75;6.30;;;;;;;11.69;77.18;100307.36;253279;1107;114924;-67
2021/09/27 05:18:11;;;;;;;13.65;5.63;;;;;;;11.79;77.46;100307.67;253956;1107;115373;-68
2021/09/27 05:23:40;;;;;;;7.73;5.00;;;;;;;11.92;77.62;100303.17;255025;1106;116216;-67
2021/09/27 05:29:12;;;;;;;11.80;5.63;;;;;;;12.08;77.78;100299.81;253197;1107;116016;-71
2021/09/27 05:34:44;;;;;;;11.63;5.48;;;;;;;12.30;77.85;100300.88;253498;1107;116997;-69
2021/09/27 05:39:49;;;;;;;8.55;5.15;;;;;;;12.55;78.02;100303.30;253385;1107;116470;-69
2021/09/27 05:45:25;;;;;;;13.60;6.70;;;;;;;12.81;77.75;100302.02;253607;1106;116235;-70
2021/09/27 05:50:47;;;;;;;11.78;5.63;;;;;;;13.09;78.15;100296.72;253395;1106;115830;-70
2021/09/27 05:55:57;;;;;;;12.78;6.68;;;;;;;13.41;77.54;100291.73;253444;1107;115696;-67
2021/09/27 06:01:26;;;;;;;17.13;6.58;;;;;;;13.73;77.45;100288.55;256374;1107;117276;-73
2021/09/27 06:06:38;;;;;;;26.73;7.15;;;;;;;14.07;76.73;100286.67;254589;1106;116335;-69
2021/09/27 06:11:46;;;;;;;9.53;6.03;;;;;;;14.39;76.72;100290.39;255753;1107;116147;-69
2021/09/27 06:16:59;;;;;;;14.23;5.55;;;;;;;14.72;76.44;100296.78;255703;1102;115672;-69
2021/09/27 06:22:23;;;;;;;12.25;6.88;;;;;;;15.01;75.82;100300.09;254903;1106;115901;-68
2021/09/27 06:27:37;;;;;;;9.03;5.80;;;;;;;15.29;75.59;100293.70;253433;1100;115998;-67
2021/09/27 06:32:53;;;;;;;8.33;6.20;;;;;;;15.56;75.25;100294.59;254824;1107;115303;-68
2021/09/27 06:38:07;;;;;;;9.18;5.15;;;;;;;15.89;74.65;100300.81;254670;1102;115617;-68
2021/09/27 06:43:15;;;;;;;10.68;5.70;;;;;;;16.27;74.50;100302.43;253806;1107;115559;-68
2021/09/27 06:48:20;;;;;;;8.65;5.48;;;;;;;16.61;73.89;100301.05;253278;1107;115500;-69
2021/09/27 06:53:25;;;;;;;10.43;5.25;;;;;;;16.90;73.48;100308.75;254806;1107;114860;-69
2021/09/27 06:58:29;;;;;;;10.08;4.13;;;;;;;16.98;72.91;100302.88;253408;1106;115630;-68
2021/09/27 07:03:34;;;;;;;9.70;4.43;;;;;;;16.98;72.85;100298.30;253434;1107;115141;-68
2021/09/27 07:08:37;;;;;;;6.90;4.15;;;;;;;17.00;72.12;100306.12;253892;1107;115845;-69
2021/09/27 07:13:42;;;;;;;5.88;3.63;;;;;;;16.93;72.13;100311.73;253768;1107;115508;-69
2021/09/27 07:18:46;;;;;;;4.87;4.20;;;;;;;16.91;71.64;100313.07;253624;1107;115524;-69
2021/09/27 07:23:49;;;;;;;11.17;5.37;;;;;;;16.96;71.59;100313.91;253299;1107;115323;-69
2021/09/27 07:28:56;;;;;;;5.48;4.28;;;;;;;16.99;71.48;100309.88;253918;1107;115882;-69
2021/09/27 07:34:02;;;;;;;13.40;5.53;;;;;;;16.94;71.13;100307.97;254595;1107;115634;-68
2021/09/27 07:39:07;;;;;;;10.08;5.35;;;;;;;16.92;71.15;100315.50;253317;1107;115708;-69
2021/09/27 07:44:11;;;;;;;9.33;4.93;;;;;;;16.94;70.86;100312.55;254303;1107;115804;-69
2021/09/27 07:49:14;;;;;;;15.95;6.05;;;;;;;16.99;70.90;100318.77;253864;1107;116185;-70
2021/09/27 07:54:17;;;;;;;8.60;5.33;;;;;;;17.02;70.84;100323.64;253236;1103;115623;-70
2021/09/27 07:59:21;;;;;;;10.40;5.93;;;;;;;17.11;70.79;100323.95;254915;1107;115609;-72
2021/09/27 08:04:24;;;;;;;11.18;5.68;;;;;;;17.20;70.64;100322.34;253328;1107;116083;-70
2021/09/27 08:09:28;;;;;;;13.28;5.18;;;;;;;17.28;70.18;100315.65;255496;1107;115333;-70
2021/09/27 08:14:31;;;;;;;9.78;5.25;;;;;;;17.40;70.26;100327.02;253715;1107;115187;-69
2021/09/27 08:19:37;;;;;;;10.55;5.40;;;;;;;17.52;70.26;100319.48;256320;1107;115528;-69
2021/09/27 08:24:40;;;;;;;9.20;4.80;;;;;;;17.71;70.38;100317.14;255261;1107;115619;-68
2021/09/27 08:29:45;;;;;;;7.18;4.63;;;;;;;17.98;70.98;100323.09;254218;1107;115802;-68
2021/09/27 08:34:51;;;;;;;9.33;4.10;;;;;;;18.31;70.84;100327.14;254893;1102;115536;-68
2021/09/27 08:39:56;;;;;;;6.45;5.10;;;;;;;18.53;70.00;100317.92;254869;1107;115027;-67
2021/09/27 08:45:23;;;;;;;7.85;4.93;;;;;;;18.74;69.61;100322.22;254128;1106;118003;-68
2021/09/27 08:50:38;;;;;;;6.08;5.25;;;;;;;18.97;68.96;100329.70;255031;1107;115118;-67
2021/09/27 08:55:41;;;;;;;7.90;4.55;;;;;;;19.20;68.77;100327.47;253587;1107;116620;-68
2021/09/27 09:00:50;;;;;;;6.80;4.95;;;;;;;19.45;68.61;100325.45;253684;1107;115953;-69
2021/09/27 09:06:02;;;;;;;10.70;4.65;;;;;;;19.66;67.82;100326.16;253281;1101;116486;-69
2021/09/27 09:11:07;;;;;;;6.95;5.13;;;;;;;19.82;67.23;100321.47;253560;1107;116385;-64
2021/09/27 09:16:17;;;;;;;7.73;5.95;;;;;;;19.98;66.94;100314.84;253448;1107;115966;-69
2021/09/27 09:21:32;;;;;;;8.40;4.10;;;;;;;20.12;65.80;100310.41;254412;1107;116211;-70
2021/09/27 09:26:42;;;;;;;7.30;5.20;;;;;;;20.24;65.38;100304.59;253172;1107;116257;-69
2021/09/27 09:31:57;;;;;;;11.88;5.45;;;;;;;20.41;65.13;100304.22;253646;1106;116551;-68
2021/09/27 09:37:10;;;;;;;8.57;5.30;;;;;;;20.59;65.19;100287.22;253382;1107;117220;-66
2021/09/27 09:42:13;;;;;;;9.33;5.67;;;;;;;20.83;64.62;100292.63;254487;1107;115883;-67
2021/09/27 09:47:19;;;;;;;8.23;5.55;;;;;;;20.98;63.89;100297.89;253148;1103;115949;-68
2021/09/27 09:52:25;;;;;;;6.83;5.13;;;;;;;21.09;63.85;100293.16;254825;1102;115847;-67
2021/09/27 09:57:34;;;;;;;11.65;4.05;;;;;;;21.12;63.13;100287.94;254551;1103;116061;-67
2021/09/27 10:02:41;;;;;;;8.73;5.13;;;;;;;21.22;62.96;100281.61;253157;1107;116269;-69
2021/09/27 10:07:54;;;;;;;9.28;5.40;;;;;;;21.28;62.42;100280.45;253233;1107;115275;-70
2021/09/27 10:13:03;;;;;;;5.75;5.25;;;;;;;21.32;61.83;100275.25;256382;1107;114906;-68
2021/09/27 10:18:21;;;;;;;10.23;4.58;;;;;;;21.37;61.97;100267.85;256164;1107;116325;-68
2021/09/27 10:23:33;;;;;;;9.28;5.83;;;;;;;21.41;61.16;100259.91;256107;1107;118887;-68
2021/09/27 10:28:38;;;;;;;9.98;5.60;;;;;;;21.57;61.26;100249.66;254669;1107;115960;-68
2021/09/27 10:33:51;;;;;;;8.83;5.80;;;;;;;21.67;61.05;100254.93;253414;1107;115889;-70
2021/09/27 10:38:59;;;;;;;9.30;5.53;;;;;;;21.70;60.25;100255.15;253409;1107;115695;-69
2021/09/27 10:44:12;;;;;;;7.53;5.17;;;;;;;21.76;60.27;100251.23;253260;1107;115790;-68
2021/09/27 10:49:41;;;;;;;8.60;4.55;;;;;;;21.83;59.85;100251.66;253553;1107;116114;-68
2021/09/27 10:55:14;;;;;;;7.40;4.87;;;;;;;21.90;60.01;100245.05;254418;1107;115597;-69
2021/09/27 11:00:37;;;;;;;6.23;5.03;;;;;;;21.95;59.65;100236.83;253048;1107;115230;-69
2021/09/27 11:06:01;;;;;;;7.30;4.70;;;;;;;22.04;59.50;100246.71;253345;1107;115415;-70
2021/09/27 11:11:32;;;;;;;8.38;5.83;;;;;;;22.09;59.32;100240.39;254476;1107;115428;-69
2021/09/27 11:16:36;;;;;;;6.53;5.10;;;;;;;22.08;58.72;100239.58;253933;1107;115438;-69
2021/09/27 11:21:47;;;;;;;8.55;4.93;;;;;;;22.10;58.71;100231.14;253372;1107;115893;-69
2021/09/27 11:27:02;;;;;;;8.48;5.73;;;;;;;22.11;58.25;100238.98;253757;1106;115881;-69
2021/09/27 11:32:22;;;;;;;8.45;5.60;;;;;;;22.14;58.23;100243.83;253453;1106;117022;-68
2021/09/27 11:37:32;;;;;;;7.80;4.43;;;;;;;22.18;58.08;100238.61;253289;1107;115760;-68
2021/09/27 11:43:06;;;;;;;11.98;6.35;;;;;;;22.19;57.94;100234.78;253635;1107;115578;-68
2021/09/27 11:48:32;;;;;;;9.40;5.80;;;;;;;22.07;57.34;100218.16;253339;1106;116104;-69
2021/09/27 11:53:53;;;;;;;8.55;5.00;;;;;;;22.04;57.34;100222.27;254668;1107;115868;-69
2021/09/27 11:59:11;;;;;;;9.68;6.40;;;;;;;22.06;57.37;100211.13;253158;1107;116011;-68
2021/09/27 12:04:14;;;;;;;8.95;5.28;;;;;;;22.02;57.43;100219.05;253409;1107;115854;-68
2021/09/27 12:09:27;;;;;;;5.33;4.80;;;;;;;21.95;57.12;100223.25;255971;1106;115789;-69
2021/09/27 12:14:45;;;;;;;9.90;5.47;;;;;;;21.88;57.30;100215.48;256061;1107;115392;-69
2021/09/27 12:19:59;;;;;;;10.43;4.70;;;;;;;21.85;57.45;100208.75;255875;1101;117194;-70
2021/09/27 12:25:14;;;;;;;8.98;5.40;;;;;;;21.75;56.86;100202.67;255799;1107;116047;-71
2021/09/27 12:30:26;;;;;;;7.68;5.05;;;;;;;21.74;56.73;100209.20;255000;1107;115913;-72
2021/09/27 12:35:39;;;;;;;9.85;5.10;;;;;;;21.75;57.16;100206.20;254887;1107;115154;-69
2021/09/27 12:40:50;;;;;;;7.47;4.27;;;;;;;21.70;56.78;100214.45;254832;1107;115220;-69
2021/09/27 12:45:58;;;;;;;7.68;4.73;;;;;;;21.70;56.68;100210.92;253330;1107;115222;-68
2021/09/27 12:51:16;;;;;;;8.98;4.48;;;;;;;21.67;56.49;100206.09;253847;1107;115222;-69
2021/09/27 12:56:20;;;;;;;6.50;4.60;;;;;;;21.63;56.24;100192.31;253865;1107;115159;-70
2021/09/27 13:01:28;;;;;;;9.30;4.53;;;;;;;21.48;56.35;100201.48;253554;1107;116402;-71
2021/09/27 13:06:54;;;;;;;5.85;4.93;;;;;;;21.43;56.55;100189.91;253869;1106;115818;-69
2021/09/27 13:12:38;;;;;;;5.25;4.15;;;;;;;21.41;56.35;100192.11;253756;1106;115166;-69
2021/09/27 13:18:13;;;;;;;5.93;4.77;;;;;;;21.32;56.06;100177.63;253145;1107;115865;-69
2021/09/27 13:23:29;;;;;;;7.60;3.85;;;;;;;21.27;56.54;100186.64;253279;1107;115451;-71
2021/09/27 13:28:41;;;;;;;13.00;4.20;;;;;;;21.27;56.82;100185.84;253193;1102;115860;-71
2021/09/27 13:33:49;;;;;;;8.37;4.47;;;;;;;21.29;56.79;100178.22;253038;1107;115830;-69
2021/09/27 13:39:08;;;;;;;5.93;4.10;;;;;;;21.25;56.47;100182.61;253198;1101;115489;-70
2021/09/27 13:44:31;;;;;;;5.88;3.85;;;;;;;21.18;56.15;100178.33;254329;1107;115722;-69
2021/09/27 13:49:38;;;;;;;9.13;4.83;;;;;;;21.08;56.44;100170.37;254035;1107;114959;-68
2021/09/27 13:54:46;;;;;;;6.20;4.60;;;;;;;20.97;56.09;100168.09;254685;1107;115225;-69
2021/09/27 13:59:49;;;;;;;8.58;4.73;;;;;;;20.79;56.00;100158.86;253765;1107;114838;-69
2021/09/27 14:04:53;;;;;;;6.17;4.33;;;;;;;20.55;56.52;100166.20;255435;1106;114914;-68
2021/09/27 14:10:00;;;;;;;4.53;4.00;;;;;;;20.37;56.80;100168.59;255633;1106;116179;-68
2021/09/27 14:15:07;;;;;;;5.98;4.45;;;;;;;20.29;57.12;100166.48;255191;1107;114984;-67
2021/09/27 14:20:18;;;;;;;14.58;4.90;;;;;;;20.22;57.27;100168.72;254044;1106;115713;-69
2021/09/27 14:25:24;;;;;;;6.08;4.08;;;;;;;20.20;57.46;100173.61;256256;1107;115552;-68
2021/09/27 14:30:27;;;;;;;4.65;3.15;;;;;;;20.12;57.05;100183.19;254131;1107;115924;-68
2021/09/27 14:35:34;;;;;;;4.20;3.08;;;;;;;19.96;56.95;100180.91;253530;1107;115769;-68
2021/09/27 14:40:39;;;;;;;8.58;4.85;;;;;;;19.80;57.56;100189.19;253238;1107;115343;-71
2021/09/27 14:45:43;;;;;;;11.83;4.45;;;;;;;19.62;57.53;100175.55;254549;1107;115300;-68
2021/09/27 14:50:53;;;;;;;6.13;3.90;;;;;;;19.44;57.78;100179.73;253608;1107;115155;-67
2021/09/27 14:55:59;;;;;;;9.68;3.63;;;;;;;19.17;58.12;100183.70;253363;1106;116088;-70
2021/09/27 15:01:07;;;;;;;9.88;4.00;;;;;;;18.95;58.34;100180.61;254118;1107;115530;-67
2021/09/27 15:06:11;;;;;;;9.08;3.40;;;;;;;18.81;58.51;100182.30;253340;1107;115647;-67
2021/09/27 15:11:16;;;;;;;6.85;3.83;;;;;;;18.70;59.21;100183.42;252955;1107;115207;-70
2021/09/27 15:16:19;;;;;;;4.93;3.73;;;;;;;18.61;59.45;100193.20;253213;1107;115117;-71
2021/09/27 15:21:25;;;;;;;10.23;4.45;;;;;;;18.51;59.13;100194.82;253049;1107;115446;-68
2021/09/27 15:26:32;;;;;;;16.97;3.77;;;;;;;18.45;59.63;100189.70;253105;1107;115670;-68
2021/09/27 15:31:48;;;;;;;7.65;3.88;;;;;;;18.38;59.51;100192.69;254140;1103;115148;-69
2021/09/27 15:36:55;;;;;;;5.93;3.90;;;;;;;18.34;59.98;100197.05;253658;1107;115170;-68
2021/09/27 15:42:01;;;;;;;5.93;3.48;;;;;;;18.29;59.82;100199.76;253921;1106;115317;-68
2021/09/27 15:47:08;;;;;;;8.00;3.93;;;;;;;18.22;60.03;100198.42;253035;1107;115172;-69
2021/09/27 15:52:19;;;;;;;4.78;3.45;;;;;;;18.13;60.13;100200.86;254152;1107;115681;-69
2021/09/27 15:57:25;;;;;;;9.05;4.05;;;;;;;18.05;60.17;100202.22;255061;1107;115356;-71
2021/09/27 16:02:29;;;;;;;9.20;3.43;;;;;;;17.98;60.58;100203.60;254952;1107;115698;-69
2021/09/27 16:07:36;;;;;;;7.98;3.90;;;;;;;17.92;60.78;100210.89;256265;1107;115568;-69
2021/09/27 16:12:45;;;;;;;8.20;3.90;;;;;;;17.86;60.80;100194.97;254092;1107;115630;-68
2021/09/27 16:17:53;;;;;;;7.55;3.73;;;;;;;17.79;60.94;100193.36;256284;1106;115651;-69
2021/09/27 16:22:56;;;;;;;;;;;;;;;17.71;61.06;100196.62;256136;1107;115300;-70
2021/09/27 16:28:04;;;;;;;16.47;4.03;;;;;;;17.60;61.22;100202.23;253953;1106;103129;-69
2021/09/27 16:33:09;;;;;;;5.88;4.15;;;;;;;17.49;61.29;100209.50;253303;1102;115032;-70
2021/09/27 16:38:13;;;;;;;6.78;5.13;;;;;;;17.37;61.91;100214.36;253434;1106;114729;-69
2021/09/27 16:43:17;;;;;;;7.73;4.40;;;;;;;17.23;61.26;100210.55;253621;1107;208629;-70
2021/09/27 16:48:20;;;;;;;6.35;4.65;;;;;;;17.06;61.82;100214.30;253434;1107;116193;-68
2021/09/27 16:53:25;;;;;;;8.18;5.23;;;;;;;16.95;61.93;100211.84;253934;1107;115509;-68
2021/09/27 16:58:29;;;;;;;9.05;4.75;;;;;;;16.88;62.30;100212.08;253348;1102;115299;-70
2021/09/27 17:03:32;;;;;;;8.68;4.35;;;;;;;16.82;62.40;100213.94;253173;1107;116219;-68
2021/09/27 17:08:37;;;;;;;12.55;4.35;;;;;;;16.78;62.19;100212.88;253084;1107;115635;-69
2021/09/27 17:13:45;;;;;;;10.08;4.05;;;;;;;16.66;62.17;100219.55;254270;1107;115006;-69
2021/09/27 17:18:49;;;;;;;8.78;4.08;;;;;;;16.56;62.20;100216.77;253169;1107;115862;-69
2021/09/27 17:24:03;;;;;;;8.63;4.35;;;;;;;16.44;62.23;100215.11;254217;1103;115724;-68
2021/09/27 17:29:09;;;;;;;15.63;4.90;;;;;;;16.32;62.17;100213.69;253472;1107;115494;-69
2021/09/27 17:34:14;;;;;;;5.73;4.38;;;;;;;16.25;62.08;100211.22;253702;1107;118139;-69
2021/09/27 17:39:23;;;;;;;8.25;4.73;;;;;;;16.18;62.09;100209.86;253706;1107;116197;-69
2021/09/27 17:44:27;;;;;;;7.50;5.27;;;;;;;16.05;61.93;100203.05;253249;1107;115586;-69
2021/09/27 17:49:32;;;;;;;6.10;4.58;;;;;;;15.95;61.95;100205.66;254399;1107;115529;-69
2021/09/27 17:54:36;;;;;;;7.03;4.63;;;;;;;15.89;62.09;100212.09;253319;1106;114929;-69
2021/09/27 17:59:40;;;;;;;10.68;5.30;;;;;;;15.79;61.86;100213.63;255028;1106;115235;-70
2021/09/27 18:04:44;;;;;;;8.80;5.68;;;;;;;15.70;62.10;100217.84;254493;1107;115247;-69
2021/09/27 18:09:56;;;;;;;8.40;5.15;;;;;;;15.60;62.17;100215.06;255177;1106;115961;-70
2021/09/27 18:15:11;;;;;;;12.03;4.73;;;;;;;15.45;61.97;100221.09;256457;1106;115029;-72
2021/09/27 18:20:24;;;;;;;7.60;5.10;;;;;;;15.36;62.13;100219.11;253485;1107;115448;-71
2021/09/27 18:25:32;;;;;;;12.40;7.45;;;;;;;15.30;62.67;100223.63;255205;1103;115040;-68
2021/09/27 18:30:36;;;;;;;13.63;7.03;;;;;;;15.23;62.53;100214.17;254970;1107;115815;-71
2021/09/27 18:35:45;;;;;;;17.53;8.43;;;;;;;15.16;62.62;100223.23;254397;1101;115613;-69
2021/09/27 18:40:56;;;;;;;8.20;5.73;;;;;;;15.09;62.70;100227.98;255835;1107;115716;-70
2021/09/27 18:46:00;;;;;;;10.40;5.03;;;;;;;14.99;62.81;100227.86;253627;1107;115092;-69
2021/09/27 18:51:08;;;;;;;11.45;5.30;;;;;;;14.89;63.00;100227.77;253771;1106;115682;-68
2021/09/27 18:56:11;;;;;;;11.50;5.95;;;;;;;14.86;63.53;100220.22;254586;1107;115801;-69
2021/09/27 19:01:16;;;;;;;12.65;6.35;;;;;;;14.81;63.47;100223.64;253799;1102;116805;-69
2021/09/27 19:06:19;;;;;;;12.48;6.85;;;;;;;14.74;63.88;100235.63;253529;1101;115551;-70
2021/09/27 19:11:23;;;;;;;6.53;5.08;;;;;;;14.68;63.99;100236.61;252985;1107;117547;-70
2021/09/27 19:16:26;;;;;;;11.13;5.63;;;;;;;14.63;64.03;100241.94;253055;1107;116159;-71
2021/09/27 19:21:33;;;;;;;9.13;4.80;;;;;;;14.56;64.21;100246.67;253242;1107;116364;-70
2021/09/27 19:26:39;;;;;;;10.18;4.48;;;;;;;14.49;64.31;100253.02;253879;1107;116938;-71
2021/09/27 19:31:46;;;;;;;7.43;5.05;;;;;;;14.49;64.92;100244.97;254000;1103;115721;-70
2021/09/27 19:36:49;;;;;;;8.38;4.53;;;;;;;14.52;64.83;100257.08;253054;1107;117031;-69
2021/09/27 19:41:59;;;;;;;8.15;4.43;;;;;;;14.55;64.84;100271.88;254471;1107;116380;-69
2021/09/27 19:47:03;;;;;;;3.40;3.10;;;;;;;14.56;64.87;100281.55;253122;1107;115743;-68
2021/09/27 19:52:09;;;;;;;9.03;4.53;;;;;;;14.56;65.26;100273.50;253899;1107;115730;-70
2021/09/27 19:57:16;;;;;;;3.88;3.38;;;;;;;14.55;65.32;100277.24;253886;1107;115158;-68
2021/09/27 20:02:20;;;;;;;6.65;3.28;;;;;;;14.59;65.39;100270.33;254792;1107;115987;-69
2021/09/27 20:07:23;;;;;;;8.23;4.55;;;;;;;14.60;65.04;100266.58;255210;1107;115672;-70
2021/09/27 20:12:28;;;;;;;4.83;3.87;;;;;;;14.62;64.93;100267.96;254906;1107;116069;-69
2021/09/27 20:17:33;;;;;;;5.13;3.43;;;;;;;14.62;64.99;100267.96;253383;1103;118119;-69
2021/09/27 20:22:37;;;;;;;6.10;3.10;;;;;;;14.57;65.38;100267.89;253905;1107;116095;-70
2021/09/27 20:27:43;;;;;;;3.27;2.67;;;;;;;14.46;65.32;100274.16;253430;1107;117856;-69
2021/09/27 20:32:58;;;;;;;3.98;3.40;;;;;;;14.39;64.75;100271.61;254470;1107;117178;-69
2021/09/27 20:38:25;;;;;;;5.27;3.47;;;;;;;14.30;65.52;100280.34;253394;1103;116175;-70
2021/09/27 20:43:30;;;;;;;4.63;3.30;;;;;;;14.21;65.57;100285.30;253575;1107;116432;-67
2021/09/27 20:48:35;;;;;;;9.58;3.25;;;;;;;14.10;65.49;100289.69;253394;1107;116355;-71
2021/09/27 20:53:42;;;;;;;16.63;3.50;;;;;;;13.99;66.05;100282.56;253811;1107;115683;-67
2021/09/27 20:58:46;;;;;;;7.45;3.78;;;;;;;13.91;65.74;100290.18;254369;1107;116242;-68
2021/09/27 21:03:53;;;;;;;6.25;4.10;;;;;;;13.87;65.51;100289.03;253744;1107;116304;-69
2021/09/27 21:08:59;;;;;;;5.55;4.03;;;;;;;13.80;65.77;100290.00;253234;1103;115696;-70
2021/09/27 21:14:03;;;;;;;4.60;3.87;;;;;;;13.76;66.38;100294.22;253446;1105;117114;-68
2021/09/27 21:19:06;;;;;;;5.65;3.65;;;;;;;13.69;66.34;100288.22;254121;1107;116375;-71
2021/09/27 21:24:12;;;;;;;7.55;4.10;;;;;;;13.60;66.18;100304.92;253559;1107;116161;-67
2021/09/27 21:29:19;;;;;;;5.20;3.33;;;;;;;13.52;66.64;100302.62;253816;1106;115454;-70
2021/09/27 21:34:22;;;;;;;8.57;4.23;;;;;;;13.49;66.48;100298.55;254021;1107;116083;-71
2021/09/27 21:39:28;;;;;;;4.93;3.97;;;;;;;13.46;66.92;100309.73;254161;1107;115928;-70
2021/09/27 21:44:31;;;;;;;3.60;3.30;;;;;;;13.38;66.73;100308.28;254509;1106;115759;-70
2021/09/27 21:49:34;;;;;;;7.38;3.78;;;;;;;13.36;66.90;100305.03;253395;1107;115717;-69
2021/09/27 21:54:37;;;;;;;5.73;4.73;;;;;;;13.34;67.30;100315.16;253404;1107;115945;-69
2021/09/27 21:59:40;;;;;;;6.25;4.10;;;;;;;13.36;67.01;100320.28;253635;1106;115739;-67
2021/09/27 22:04:50;;;;;;;11.77;5.30;;;;;;;13.34;67.52;100317.84;254116;1107;116141;-68
2021/09/27 22:09:54;;;;;;;15.20;4.23;;;;;;;13.34;67.56;100322.38;254253;1106;116243;-70
2021/09/27 22:14:58;;;;;;;3.73;2.80;;;;;;;13.28;67.61;100320.65;253720;1106;116256;-72
2021/09/27 22:20:02;;;;;;;5.68;3.68;;;;;;;13.23;67.67;100320.55;253915;1107;116206;-67
2021/09/27 22:25:06;;;;;;;5.68;5.00;;;;;;;13.23;67.73;100317.87;255679;1106;115672;-69
2021/09/27 22:30:12;;;;;;;6.40;4.93;;;;;;;13.26;67.98;100309.36;256201;1106;114776;-68
2021/09/27 22:35:18;;;;;;;7.40;5.38;;;;;;;13.26;67.69;100312.04;256213;1106;115159;-68
2021/09/27 22:40:21;;;;;;;6.08;3.48;;;;;;;13.14;67.96;100312.06;255072;1107;115297;-69
2021/09/27 22:45:24;;;;;;;7.55;4.43;;;;;;;13.04;67.71;100315.34;253108;1103;115145;-68
2021/09/27 22:50:28;;;;;;;5.63;3.73;;;;;;;13.02;68.21;100312.09;254390;1107;116685;-68
2021/09/27 22:55:36;;;;;;;5.43;4.03;;;;;;;12.96;68.36;100323.73;253973;1107;116132;-68
2021/09/27 23:00:41;;;;;;;7.03;5.20;;;;;;;12.87;67.94;100321.64;253856;1107;116108;-69
2021/09/27 23:05:46;;;;;;;4.68;3.73;;;;;;;12.72;67.65;100322.95;254714;1107;115786;-69
2021/09/27 23:10:49;;;;;;;6.68;4.53;;;;;;;12.64;68.59;100319.81;253937;1107;116243;-67
2021/09/27 23:15:56;;;;;;;5.90;4.45;;;;;;;12.57;68.59;100327.14;253248;1103;116392;-68
2021/09/27 23:21:01;;;;;;;5.45;4.93;;;;;;;12.52;68.11;100324.38;254417;1106;116182;-68
2021/09/27 23:26:04;;;;;;;5.75;4.88;;;;;;;12.44;68.92;100322.86;254506;1107;115021;-67